Time;durP1;ratioP1;P1;durP2;ratioP2;P2;SDS_P1;SDS_P2;PMS_P1;PMS_P2;Temp;Humidity;BMP_temperature;BMP_pressure;BME280_temperature;BME280_humidity;BME280_pressure;Samples;Min_cycle;Max_cycle;Signal;HPM_P1;HPM_P2
2021/05/03 04:37:32;;;;;;;24.33;11.37;;;3.10;1.00;;;-143.32;100.00;55210.56;4905621;29;20436;-90
2021/05/03 04:40:11;;;;;;;17.50;10.80;;;3.20;1.00;;;-143.32;100.00;55210.56;4906348;29;20452;-90
2021/05/03 04:42:52;;;;;;;17.13;10.73;;;3.20;1.00;;;-143.32;100.00;55228.75;4906097;29;20487;-91
2021/05/03 04:45:36;;;;;;;20.57;10.50;;;3.30;1.00;;;-143.32;100.00;55208.53;4905801;29;20451;-89
2021/05/03 04:48:23;;;;;;;18.13;10.10;;;3.20;1.00;;;-143.32;100.00;55240.88;4906218;29;20456;-89
2021/05/03 04:51:01;;;;;;;18.73;11.20;;;3.20;1.00;;;-143.32;100.00;55232.78;4905411;29;20547;-89
2021/05/03 04:53:46;;;;;;;20.00;10.77;;;3.20;1.00;;;-143.32;100.00;55202.47;4907286;29;20535;-89
2021/05/03 05:08:37;;;;;;;15.23;10.03;;;3.60;1.00;;;-143.32;100.00;55196.41;4861397;29;20454;-90
2021/05/03 05:15:31;;;;;;;18.03;11.00;;;3.70;99.90;;;-143.32;100.00;55218.63;4775761;30;20860;-91
2021/05/03 05:22:52;;;;;;;14.10;8.80;;;4.00;99.90;;;-143.32;100.00;55220.66;4740437;30;20514;-91
2021/05/03 05:36:40;;;;;;;17.47;11.47;;;4.90;99.90;;;-143.32;96.63;55162.06;4874859;29;20498;-91
2021/05/03 05:42:11;;;;;;;19.40;13.27;;;5.50;1.00;;;-143.32;94.40;55200.44;4884743;29;20483;-89
2021/05/03 05:44:37;;;;;;;18.77;12.97;;;5.70;99.90;;;-143.32;94.63;55160.03;4900924;29;20444;-89
2021/05/03 05:47:14;;;;;;;20.17;14.03;;;5.80;99.90;;;-143.32;93.86;55198.44;4901660;29;20805;-91
2021/05/03 05:50:10;;;;;;;19.73;13.10;;;5.90;99.90;;;-143.32;92.32;55168.13;4900754;29;20433;-90
2021/05/03 05:55:32;;;;;;;21.83;12.87;;;6.60;1.00;;;-143.32;90.61;55180.25;4903435;29;20810;-93
2021/05/03 05:58:00;;;;;;;16.53;11.47;;;6.90;1.00;;;-143.32;88.77;55139.81;4903763;29;20460;-92
2021/05/03 06:00:29;;;;;;;17.77;11.10;;;7.20;99.90;;;-143.32;87.55;55141.84;4901578;29;20476;-91
2021/05/03 06:03:00;;;;;;;17.17;10.30;;;7.60;99.90;;;-143.32;87.25;55143.88;4905180;29;20491;-92
2021/05/03 06:05:28;;;;;;;12.90;10.10;;;7.80;99.90;;;-143.32;86.29;55119.63;4904310;29;20504;-91
2021/05/03 06:07:55;;;;;;;13.57;10.13;;;8.10;99.90;;;-143.32;85.27;55125.69;4903772;29;20472;-91
2021/05/03 06:10:22;;;;;;;10.80;8.27;;;8.30;99.90;;;-143.32;83.79;55107.50;4903351;29;20943;-91
2021/05/03 06:16:32;;;;;;;11.60;8.37;;;8.90;1.00;;;-143.32;84.48;55156.00;4900533;29;20420;-92
2021/05/03 06:18:58;;;;;;;17.27;9.43;;;8.60;25.50;;;-143.32;85.04;55141.84;4900475;29;20971;-90
2021/05/03 06:21:26;;;;;;;16.77;8.43;;;8.40;93.40;;;-143.32;85.21;55137.81;4900418;29;20456;-91
2021/05/03 06:23:53;;;;;;;10.70;7.60;;;8.40;99.90;;;-143.32;85.02;55170.13;4900024;29;20538;-91
2021/05/03 06:30:00;;;;;;;13.17;7.00;;;8.10;99.90;;;-143.32;86.05;55135.78;4900099;29;20415;-93
2021/05/03 06:32:28;;;;;;;7.43;6.33;;;8.00;99.90;;;-143.32;86.37;55131.75;4900319;29;20464;-90
2021/05/03 06:34:55;;;;;;;13.10;8.00;;;8.00;99.90;;;-143.32;86.96;55133.75;4899370;29;20567;-91
2021/05/03 06:41:08;;;;;;;11.53;8.10;;;7.60;99.90;;;-143.32;86.36;55160.03;4902369;29;20428;-91
2021/05/03 06:43:35;;;;;;;12.90;8.90;;;7.70;99.90;;;-143.32;86.69;55129.72;4899846;29;20509;-92
2021/05/03 06:46:04;;;;;;;10.70;7.63;;;7.80;99.90;;;-143.32;86.38;55176.19;4900541;29;20460;-90
2021/05/03 06:48:31;;;;;;;11.50;7.30;;;7.80;99.90;;;-143.32;85.53;55145.88;4900397;29;20467;-91
2021/05/03 06:51:01;;;;;;;11.47;7.40;;;8.10;99.90;;;-143.32;84.27;55149.94;4903942;29;20983;-92
2021/05/03 06:53:28;;;;;;;13.10;7.03;;;8.30;99.90;;;-143.32;83.48;55162.06;4903384;29;20452;-88
2021/05/03 06:55:54;;;;;;;11.97;6.97;;;8.40;87.40;;;-143.32;82.67;55168.13;4902165;29;20492;-89
2021/05/03 06:58:22;;;;;;;12.17;6.97;;;8.40;1.00;;;-143.32;82.71;55129.72;4899561;29;20460;-87
2021/05/03 07:00:48;;;;;;;12.50;6.70;;;8.50;8.90;;;-143.32;82.83;55127.69;4899642;29;20516;-89
2021/05/03 07:03:15;;;;;;;25.00;7.40;;;8.50;24.90;;;-143.32;81.67;55139.81;4899017;29;20534;-88
2021/05/03 07:05:42;;;;;;;13.77;7.07;;;8.70;1.00;;;-143.32;81.22;55133.75;4899403;29;20456;-90
2021/05/03 07:08:10;;;;;;;8.73;6.00;;;8.80;1.00;;;-143.32;80.18;55121.63;4899220;29;20840;-90
2021/05/03 07:10:38;;;;;;;16.50;10.50;;;9.10;1.00;;;-143.32;77.53;55087.28;4887425;29;20528;-89
2021/05/03 07:13:05;;;;;;;13.93;6.53;;;9.40;1.00;;;-143.32;76.77;55139.81;4880337;29;20453;-89
2021/05/03 07:15:32;;;;;;;11.97;7.23;;;9.70;1.00;;;-143.32;77.54;55089.31;4893167;29;20452;-89
2021/05/03 07:17:59;;;;;;;13.17;6.30;;;9.70;1.00;;;-143.32;75.79;55111.53;4896278;29;20542;-92
2021/05/03 07:20:26;;;;;;;11.70;6.87;;;10.00;1.00;;;-143.32;74.60;55103.44;4882554;29;21059;-90
2021/05/03 07:22:52;;;;;;;12.70;6.93;;;10.30;1.00;;;-143.32;73.64;55105.47;4898544;29;20530;-91
2021/05/03 07:25:19;;;;;;;13.70;6.07;;;10.40;1.00;;;-143.32;73.67;55131.75;4898991;29;20606;-89
2021/05/03 07:31:27;;;;;;;9.60;5.60;;;10.30;1.00;;;-143.32;71.08;55109.50;4898743;29;20455;-87
2021/05/03 07:33:57;;;;;;;17.43;7.23;;;10.60;99.90;;;-143.32;70.57;55158.00;4899011;29;20449;-88
2021/05/03 07:36:24;;;;;;;10.73;5.83;;;10.60;99.90;;;-143.32;69.25;55101.44;4899344;29;20850;-92
2021/05/03 07:38:52;;;;;;;12.73;6.40;;;10.80;99.90;;;-143.32;68.10;55156.00;4898716;29;20863;-91
2021/05/03 07:41:19;;;;;;;10.93;6.63;;;10.90;99.90;;;-143.32;67.12;55139.81;4898652;29;20471;-87
2021/05/03 07:43:46;;;;;;;11.27;6.27;;;11.00;99.90;;;-143.32;63.70;55105.47;4899608;29;20500;-87
2021/05/03 07:46:13;;;;;;;17.20;6.00;;;11.40;99.90;;;-143.32;63.34;55145.88;4898008;29;20460;-90
2021/05/03 07:48:40;;;;;;;12.63;5.67;;;11.60;99.90;;;-143.32;61.88;55156.00;4892632;29;20472;-90
2021/05/03 07:51:07;;;;;;;17.70;6.60;;;11.80;99.90;;;-143.32;61.03;55137.81;4893795;29;20536;-90
2021/05/03 07:53:34;;;;;;;6.93;5.50;;;11.90;99.90;;;-143.32;62.10;55137.81;4888602;29;20457;-90
2021/05/03 07:56:13;;;;;;;12.30;6.47;;;11.70;99.90;;;-143.32;61.86;55162.06;4884605;29;20448;-90
2021/05/03 07:58:40;;;;;;;9.73;5.53;;;11.80;99.90;;;-143.32;61.21;55184.28;4898824;29;20448;-91
2021/05/03 08:01:07;;;;;;;14.60;5.80;;;11.70;99.90;;;-143.32;59.30;55164.06;4898461;29;20467;-90
2021/05/03 08:03:40;;;;;;;8.40;5.77;;;11.90;99.90;;;-143.32;56.76;55145.88;4898120;29;20575;-91
2021/05/03 08:06:12;;;;;;;20.10;7.13;;;12.20;99.90;;;-143.32;55.30;55158.00;4892820;29;20510;-93
2021/05/03 08:08:39;;;;;;;10.53;6.23;;;12.30;99.90;;;-143.32;56.51;55194.38;4879909;29;20834;-92
2021/05/03 08:11:08;;;;;;;11.77;6.20;;;12.10;99.90;;;-143.32;55.86;55202.47;4880648;29;20516;-92
2021/05/03 08:13:38;;;;;;;12.80;5.70;;;12.00;99.90;;;-143.32;53.77;55226.72;4885676;29;20475;-89
2021/05/03 08:16:09;;;;;;;12.40;5.37;;;11.90;99.90;;;-143.32;54.88;55202.47;4899288;29;20974;-87
2021/05/03 08:18:38;;;;;;;12.60;6.20;;;12.00;99.90;;;-143.32;54.43;55220.66;4892200;29;20848;-88
2021/05/03 08:21:15;;;;;;;9.10;5.50;;;11.90;99.90;;;-143.32;54.64;55190.34;4898062;29;20456;-89
2021/05/03 08:31:06;;;;;;;8.33;5.27;;;12.60;99.90;;;-143.32;49.13;55164.06;4840804;29;20888;-90
2021/05/03 08:45:00;;;;;;;14.27;6.30;;;13.40;99.90;;;-143.32;44.88;55224.69;4884254;29;20878;-91
2021/05/03 08:48:32;;;;;;;12.17;5.97;;;13.50;99.90;;;-143.32;47.10;55305.53;4893916;29;20512;-93
2021/05/03 09:14:32;;;;;;;10.37;6.47;;;15.00;99.90;;;-143.32;38.74;55293.41;4921703;29;20443;-93
2021/05/03 09:17:03;;;;;;;11.40;6.07;;;14.80;99.90;;;-143.32;38.37;55257.03;4913850;29;20428;-93
2021/05/03 09:19:35;;;;;;;28.70;7.70;;;14.70;99.90;;;-143.32;38.67;55236.81;4915088;29;20462;-92
2021/05/03 09:22:48;;;;;;;11.50;6.20;;;14.90;99.90;;;-143.32;39.44;55255.00;4910956;29;20444;-94
2021/05/03 09:28:33;;;;;;;13.63;6.33;;;14.60;99.90;;;-143.32;39.03;55283.31;4857284;29;20471;-90
2021/05/03 09:31:01;;;;;;;14.10;6.43;;;14.60;99.90;;;-143.32;39.08;55240.88;4883049;29;20497;-92
2021/05/03 09:33:41;;;;;;;;;;;;;;;;;;;;;
2021/05/03 09:36:25;;;;;;;12.03;6.90;;;14.70;99.90;;;-143.32;39.06;55248.94;4891347;29;20440;-91
2021/05/03 09:38:52;;;;;;;11.40;5.83;;;14.80;99.90;;;-143.32;38.30;55275.22;4888166;29;20520;-90
2021/05/03 09:41:21;;;;;;;17.57;6.33;;;15.10;99.90;;;-143.32;36.88;55287.34;4893397;29;20467;-90
2021/05/03 09:43:51;;;;;;;10.37;5.63;;;15.30;99.90;;;-143.32;35.97;55275.22;4902246;29;20499;-90
2021/05/03 09:46:36;;;;;;;8.43;5.37;;;15.20;99.90;;;-143.32;36.70;55289.38;4901549;29;20459;-89
2021/05/03 09:49:07;;;;;;;9.40;6.00;;;15.00;99.90;;;-143.32;36.78;55325.75;4902539;29;20475;-90
2021/05/03 09:51:42;;;;;;;11.93;6.60;;;14.90;99.90;;;-143.32;39.42;55358.06;4911395;29;20995;-91
2021/05/03 09:54:26;;;;;;;15.70;6.90;;;14.00;99.90;;;-143.32;40.11;55370.19;4911452;29;20449;-90
2021/05/03 09:57:01;;;;;;;10.50;6.43;;;13.60;99.90;;;-143.32;40.61;55329.78;4913497;29;20462;-90
2021/05/03 09:59:45;;;;;;;11.30;7.20;;;13.50;99.90;;;-143.32;39.50;55406.56;4912498;29;20447;-92
2021/05/03 10:02:19;;;;;;;24.10;12.00;;;13.60;99.90;;;-143.32;38.95;55384.34;4914880;29;20468;-92
2021/05/03 10:05:21;;;;;;;15.50;8.30;;;13.70;99.90;;;-143.32;38.54;55356.06;4917442;29;20428;-93
2021/05/03 10:07:52;;;;;;;6.70;5.43;;;13.90;99.90;;;-143.32;38.28;55321.69;4919937;29;20476;-91
2021/05/03 10:10:35;;;;;;;8.50;6.50;;;14.20;99.90;;;-143.32;37.67;55347.97;4914652;29;20459;-90
2021/05/03 10:13:04;;;;;;;12.10;6.70;;;14.30;99.90;;;-143.32;37.01;55335.84;4906961;29;20447;-91
2021/05/03 10:19:28;;;;;;;15.20;7.10;;;14.50;99.90;;;-143.32;37.24;55299.47;4921863;29;20412;-92
2021/05/03 10:25:42;;;;;;;10.93;7.03;;;14.50;99.90;;;-143.32;37.60;55352.00;4921256;29;20485;-92
2021/05/03 10:28:31;;;;;;;17.90;6.93;;;14.30;99.90;;;-143.32;37.61;55366.16;4907478;29;20483;-93
2021/05/03 10:34:07;;;;;;;9.00;6.77;;;14.30;99.90;;;-143.32;36.46;55350.00;4887259;29;20480;-93
2021/05/03 10:36:48;;;;;;;13.93;6.50;;;14.50;99.90;;;-143.32;37.03;55368.19;5194468;23;20519;-92
2021/05/03 11:13:45;;;;;;;12.60;7.13;;;14.90;99.90;;;-143.32;35.80;55432.84;4829795;29;20429;-93
2021/05/03 11:17:06;;;;;;;15.77;6.70;;;14.30;99.90;;;-143.32;36.85;55358.06;4841917;29;20459;-94
2021/05/03 11:22:22;;;;;;;12.50;6.67;;;14.50;99.90;;;-143.32;35.41;55400.50;4910806;29;20494;-89
2021/05/03 11:27:59;;;;;;;10.37;6.97;;;14.90;99.90;;;-143.32;34.23;55404.56;4920656;23;20505;-88
2021/05/03 11:30:56;;;;;;;15.77;7.07;;;14.90;99.90;;;-143.32;34.69;55366.16;4887725;29;20469;-88
2021/05/03 11:33:55;;;;;;;;;;;;;;;;;;;;;
2021/05/03 11:36:50;;;;;;;9.73;7.03;;;14.90;99.90;;;-143.32;33.80;55402.53;4899373;29;20491;-90
2021/05/03 11:39:51;;;;;;;9.30;6.63;;;15.10;99.90;;;-143.32;35.06;55432.84;4904151;29;20467;-87
2021/05/03 11:45:45;;;;;;;;;;;;;;;;;;;;;
2021/05/03 11:48:33;;;;;;;;;;;;;;;;;;;;;
2021/05/03 11:51:25;;;;;;;11.20;6.83;;;15.30;99.90;;;-143.32;33.72;55414.66;4904527;29;20979;-89
2021/05/03 12:00:29;;;;;;;12.13;6.67;;;15.40;99.90;;;-143.32;34.35;55416.69;4881728;29;20456;-89
2021/05/03 12:03:15;;;;;;;7.93;6.70;;;14.90;99.90;;;-143.32;35.09;55438.91;4882361;29;21031;-89
2021/05/03 12:07:09;;;;;;;;;;;;;;;;;;;;;
2021/05/03 12:14:19;;;;;;;10.60;6.30;;;14.20;99.90;;;-143.32;34.40;55432.84;4843262;29;20852;-91
2021/05/03 12:18:05;;;;;;;;;;;;;;;;;;;;;
2021/05/03 12:27:38;;;;;;;7.70;6.10;;;15.00;99.90;;;-143.32;35.07;55428.81;4881784;29;20444;-91
2021/05/03 12:30:57;;;;;;;10.13;6.77;;;14.70;99.90;;;-143.32;35.93;55436.88;4883578;29;20830;-89
2021/05/03 12:33:43;;;;;;;16.40;7.20;;;14.30;99.90;;;-143.32;36.13;55410.63;4881623;29;20484;-89
2021/05/03 12:36:26;;;;;;;9.40;7.10;;;14.50;99.90;;;-143.32;35.26;55447.00;4899943;29;20444;-90
2021/05/03 12:39:12;;;;;;;11.67;7.40;;;14.70;99.90;;;-143.32;35.42;55410.63;4902023;29;20969;-88
2021/05/03 12:41:41;;;;;;;11.20;6.90;;;15.00;99.90;;;-143.32;34.70;55382.31;4902103;29;20899;-88
2021/05/03 12:44:14;;;;;;;11.90;7.87;;;15.20;99.90;;;-143.32;34.03;55394.44;4902330;29;20496;-88
2021/05/03 12:58:34;;;;;;;10.67;7.47;;;14.50;99.90;;;-143.32;37.13;55428.81;4861716;29;20575;-91
2021/05/03 13:08:07;;;;;;;10.10;7.23;;;13.90;99.90;;;-143.32;38.49;55406.56;5726440;23;20504;-90
2021/05/03 13:52:08;;;;;;;10.73;7.00;;;14.50;99.90;;;-143.32;35.36;55479.34;5340403;23;21019;-91
2021/05/03 13:54:36;;;;;;;15.37;6.70;;;14.30;99.90;;;-143.32;35.50;55455.06;4864168;29;20431;-88
2021/05/03 13:57:21;;;;;;;12.80;7.20;;;14.20;99.90;;;-143.32;35.67;55438.91;4867681;29;20498;-92
2021/05/03 14:00:12;;;;;;;10.13;6.60;;;14.30;99.90;;;-143.32;34.60;55449.00;4876466;29;20461;-91
2021/05/03 14:03:01;;;;;;;16.10;6.93;;;14.50;99.90;;;-143.32;34.51;55420.72;4872682;29;20486;-91
2021/05/03 14:05:38;;;;;;;8.20;6.23;;;14.70;99.90;;;-143.32;33.25;55428.81;4865391;29;20785;-88
2021/05/03 14:08:09;;;;;;;8.67;6.30;;;14.80;99.90;;;-143.32;33.25;55459.13;4865086;29;20839;-90
2021/05/03 14:10:46;;;;;;;14.03;6.47;;;14.90;99.90;;;-143.32;33.20;55451.03;4870069;29;20453;-91
2021/05/03 14:13:13;;;;;;;13.30;7.23;;;15.00;99.90;;;-143.32;34.03;55453.06;4867074;29;20769;-87
2021/05/03 14:15:40;;;;;;;16.23;6.70;;;15.00;99.90;;;-143.32;33.32;55438.91;4863199;29;20911;-88
2021/05/03 14:18:08;;;;;;;9.07;6.27;;;14.90;99.90;;;-143.32;33.24;55485.41;4863023;29;20486;-91
2021/05/03 14:20:34;;;;;;;9.20;5.50;;;14.80;99.90;;;-143.32;32.99;55459.13;4865837;29;20533;-90
2021/05/03 14:23:01;;;;;;;8.93;6.00;;;14.80;99.90;;;-143.32;33.44;55453.06;4864909;29;20530;-92
2021/05/03 14:25:31;;;;;;;13.07;6.17;;;14.70;99.90;;;-143.32;33.30;55459.13;4864479;29;20496;-91
2021/05/03 14:28:05;;;;;;;15.67;6.57;;;14.80;99.90;;;-143.32;32.90;55461.13;4874932;29;20461;-91
2021/05/03 14:30:42;;;;;;;8.87;6.40;;;14.90;99.90;;;-143.32;32.89;55475.28;4866392;29;20533;-91
2021/05/03 14:33:18;;;;;;;10.20;5.87;;;15.00;99.90;;;-143.32;32.77;55447.00;4865306;29;20473;-92
2021/05/03 14:35:45;;;;;;;13.03;5.47;;;15.00;99.90;;;-143.32;32.94;55440.94;4864472;29;20461;-91
2021/05/03 14:41:54;;;;;;;11.30;6.07;;;14.80;99.90;;;-143.32;33.25;55467.22;4864098;29;20432;-92
2021/05/03 14:44:24;;;;;;;30.90;8.67;;;14.80;99.90;;;-143.32;32.95;55469.22;4864571;29;20521;-91
2021/05/03 14:46:55;;;;;;;14.33;6.60;;;14.80;99.90;;;-143.32;32.74;55513.69;4864434;29;20446;-92
2021/05/03 14:49:39;;;;;;;9.93;6.60;;;14.50;99.90;;;-143.32;32.39;55511.66;4863162;29;20478;-91
2021/05/03 14:52:08;;;;;;;49.17;8.83;;;14.50;99.90;;;-143.32;32.52;55529.84;4862945;29;20461;-91
2021/05/03 14:54:39;;;;;;;25.30;7.57;;;14.50;99.90;;;-143.32;32.19;55481.34;4865647;29;20474;-92
2021/05/03 14:57:10;;;;;;;14.00;5.77;;;14.70;99.90;;;-143.32;31.85;55501.56;4863285;29;20940;-91
2021/05/03 14:59:39;;;;;;;16.13;5.73;;;15.10;99.90;;;-143.32;31.47;55477.31;4863080;29;20477;-92
2021/05/03 15:02:06;;;;;;;45.43;8.20;;;15.30;99.90;;;-143.32;31.62;55493.47;4862426;29;20462;-90
2021/05/03 15:04:37;;;;;;;24.80;5.57;;;15.30;99.90;;;-143.32;31.87;55511.66;4862324;29;20481;-91
2021/05/03 15:07:09;;;;;;;12.90;5.30;;;15.20;99.90;;;-143.32;32.13;55499.53;4863738;29;20442;-89
2021/05/03 15:09:39;;;;;;;10.13;4.90;;;14.80;99.90;;;-143.32;32.21;55548.03;4862572;29;20469;-91
2021/05/03 15:12:12;;;;;;;5.80;5.17;;;14.70;99.90;;;-143.32;33.28;55513.69;4861994;29;20454;-89
2021/05/03 15:14:54;;;;;;;6.83;5.67;;;14.60;99.90;;;-143.32;34.37;55489.44;4862750;29;20473;-92
2021/05/03 15:17:28;;;;;;;9.93;5.50;;;14.40;99.90;;;-143.32;34.75;55485.41;4851420;29;20455;-88
2021/05/03 15:20:00;;;;;;;8.63;5.20;;;14.40;99.90;;;-143.32;35.31;55497.53;4861775;29;20466;-90
2021/05/03 15:22:31;;;;;;;9.00;5.23;;;14.30;99.90;;;-143.32;35.02;55481.34;4862026;29;20851;-91
2021/05/03 15:25:01;;;;;;;13.53;5.67;;;14.40;99.90;;;-143.32;35.16;55475.28;4863061;29;20478;-89
2021/05/03 15:27:34;;;;;;;13.60;4.63;;;14.30;99.90;;;-143.32;34.87;55491.47;4862951;29;20470;-89
2021/05/03 15:30:12;;;;;;;16.40;5.70;;;14.40;99.90;;;-143.32;34.62;55487.41;4863896;29;20541;-89
2021/05/03 15:33:25;;;;;;;15.80;5.87;;;14.50;99.90;;;-143.32;34.05;55459.13;4858518;29;20486;-89
2021/05/03 15:35:45;;;;;;;12.00;4.87;;;14.50;99.90;;;-143.32;33.73;55495.50;4854841;29;20810;-90
2021/05/03 15:38:14;;;;;;;6.23;4.90;;;14.50;99.90;;;-143.32;33.34;55503.59;4862010;29;20454;-91
2021/05/03 15:40:59;;;;;;;8.83;5.10;;;14.60;99.90;;;-143.32;32.48;55511.66;4861272;29;20470;-89
2021/05/03 15:43:31;;;;;;;7.77;4.73;;;14.80;99.90;;;-143.32;32.67;55525.81;4862554;29;20854;-90
2021/05/03 15:45:59;;;;;;;12.30;5.20;;;14.70;99.90;;;-143.32;32.47;55523.78;4861878;29;20454;-87
2021/05/03 15:48:26;;;;;;;12.43;4.50;;;14.60;99.90;;;-143.32;32.68;55489.44;4861796;29;20462;-89
2021/05/03 15:54:36;;;;;;;7.73;5.00;;;14.90;99.90;;;-143.32;32.53;55501.56;4861961;29;20521;-89
2021/05/03 16:00:47;;;;;;;8.27;4.90;;;14.90;99.90;;;-143.32;33.79;55493.47;4861782;29;20834;-90
2021/05/03 16:03:15;;;;;;;7.27;5.03;;;14.60;99.90;;;-143.32;34.21;55517.72;4862211;29;20494;-89
2021/05/03 16:05:42;;;;;;;5.67;4.53;;;14.40;99.90;;;-143.32;34.43;55475.28;4861689;29;20462;-90
2021/05/03 16:08:11;;;;;;;7.83;4.87;;;14.30;99.90;;;-143.32;34.57;55511.66;4861403;29;20458;-91
2021/05/03 16:10:47;;;;;;;9.50;5.13;;;14.40;99.90;;;-143.32;34.67;55475.28;4862354;29;20503;-88
2021/05/03 16:13:14;;;;;;;6.67;4.63;;;14.40;99.90;;;-143.32;34.49;55471.25;4861754;29;20445;-88
2021/05/03 16:15:41;;;;;;;5.67;4.93;;;14.50;99.90;;;-143.32;34.36;55509.66;4867963;29;20458;-88
2021/05/03 16:18:08;;;;;;;8.87;4.70;;;14.50;99.90;;;-143.32;34.87;55511.66;4869474;29;20925;-88
2021/05/03 16:20:37;;;;;;;10.40;4.73;;;14.40;99.90;;;-143.32;34.47;55489.44;4877245;29;20454;-89
2021/05/03 16:23:04;;;;;;;9.13;4.83;;;14.40;99.90;;;-143.32;34.40;55509.66;4879938;29;20481;-91
2021/05/03 16:25:32;;;;;;;7.27;4.63;;;14.40;99.90;;;-143.32;34.20;55497.53;4870841;29;20495;-89
2021/05/03 16:28:00;;;;;;;7.70;4.20;;;14.20;99.90;;;-143.32;34.39;55519.75;4864577;29;20983;-90
2021/05/03 16:30:27;;;;;;;6.80;4.40;;;14.10;99.90;;;-143.32;35.00;55489.44;4862371;29;20462;-90
2021/05/03 16:32:56;;;;;;;11.40;4.93;;;14.00;99.90;;;-143.32;34.66;55515.72;4861245;29;20481;-89
2021/05/03 16:35:24;;;;;;;5.23;4.30;;;14.10;99.90;;;-143.32;34.47;55521.78;4861924;29;20454;-87
2021/05/03 16:37:51;;;;;;;13.33;4.57;;;14.10;99.90;;;-143.32;34.64;55523.78;4861372;29;20453;-88
2021/05/03 16:43:58;;;;;;;7.13;4.70;;;13.90;99.90;;;-143.32;34.65;55556.13;4861406;29;20900;-87
2021/05/03 16:46:32;;;;;;;9.03;5.37;;;13.70;99.90;;;-143.32;35.09;55499.53;4861194;29;20461;-88
2021/05/03 16:49:01;;;;;;;6.87;4.27;;;13.70;99.90;;;-143.32;34.86;55505.59;4861175;29;20493;-86
2021/05/03 16:51:29;;;;;;;5.50;3.97;;;13.70;99.90;;;-143.32;35.07;55527.84;4861265;29;20801;-88
2021/05/03 16:53:56;;;;;;;7.77;4.50;;;13.80;99.90;;;-143.32;35.21;55515.72;4861877;29;20462;-90
2021/05/03 16:56:24;;;;;;;6.33;4.10;;;13.80;99.90;;;-143.32;35.57;55527.84;4861283;29;20569;-91
2021/05/03 16:58:51;;;;;;;5.80;3.67;;;13.70;99.90;;;-143.32;35.72;55566.22;4860700;29;20991;-89
2021/05/03 17:01:18;;;;;;;9.13;4.10;;;13.60;99.90;;;-143.32;35.68;55503.59;4860980;29;20582;-90
2021/05/03 17:03:46;;;;;;;10.23;3.70;;;13.70;99.90;;;-143.32;35.94;55499.53;4860948;29;20568;-90
2021/05/03 17:06:13;;;;;;;6.10;3.70;;;13.60;99.90;;;-143.32;36.18;55513.69;4860804;29;20952;-91
2021/05/03 17:08:43;;;;;;;3.80;3.37;;;13.60;99.90;;;-143.32;36.06;55497.53;4861382;29;20477;-91
2021/05/03 17:11:10;;;;;;;9.10;4.13;;;13.60;99.90;;;-143.32;36.07;55497.53;4861277;29;20438;-88
2021/05/03 17:13:36;;;;;;;15.07;3.97;;;13.70;99.90;;;-143.32;36.25;55495.50;4861604;29;20458;-89
2021/05/03 17:19:45;;;;;;;6.00;3.63;;;13.70;99.90;;;-143.32;36.38;55531.88;4863672;29;20441;-90
2021/05/03 17:22:12;;;;;;;9.43;3.90;;;13.60;99.90;;;-143.32;36.78;55505.59;4865110;29;20452;-88
2021/05/03 17:24:41;;;;;;;7.50;4.30;;;13.50;99.90;;;-143.32;37.18;55523.78;4866322;29;20497;-90
2021/05/03 17:27:08;;;;;;;11.27;4.10;;;13.50;99.90;;;-143.32;37.15;55546.03;4865997;29;20461;-89
2021/05/03 17:29:36;;;;;;;5.47;4.20;;;13.40;99.90;;;-143.32;37.77;55515.72;4865139;29;20486;-89
2021/05/03 17:32:04;;;;;;;8.83;4.10;;;13.50;99.90;;;-143.32;37.27;55513.69;4864950;29;20462;-91
2021/05/03 17:34:31;;;;;;;7.73;4.00;;;13.40;99.90;;;-143.32;37.39;55529.84;4864793;29;20510;-88
2021/05/03 17:37:02;;;;;;;8.17;4.53;;;13.50;99.90;;;-143.32;37.66;55537.94;4865165;29;20450;-89
2021/05/03 17:39:29;;;;;;;7.90;3.80;;;13.40;99.90;;;-143.32;38.05;55521.78;4864672;29;20477;-89
2021/05/03 17:41:56;;;;;;;6.53;4.47;;;13.50;99.90;;;-143.32;37.96;55475.28;4864405;29;20446;-89
2021/05/03 17:44:36;;;;;;;4.20;3.67;;;13.50;99.90;;;-143.32;38.06;55499.53;4863901;29;20501;-89
2021/05/03 17:47:14;;;;;;;9.47;3.90;;;13.60;99.90;;;-143.32;38.45;55451.03;4864543;29;20579;-90
2021/05/03 17:49:41;;;;;;;7.20;4.10;;;13.60;99.90;;;-143.32;39.17;55497.53;4864833;29;20446;-91
2021/05/03 17:52:09;;;;;;;6.17;3.60;;;13.50;99.90;;;-143.32;39.30;55531.88;4867188;29;20544;-90
2021/05/03 17:54:50;;;;;;;6.30;3.70;;;13.40;99.90;;;-143.32;39.84;55487.41;4863995;29;20504;-92
2021/05/03 17:57:18;;;;;;;6.63;4.57;;;13.40;99.90;;;-143.32;40.13;55481.34;4862521;29;20463;-91
2021/05/03 17:59:50;;;;;;;11.60;4.63;;;13.30;99.90;;;-143.32;40.47;55489.44;4864851;29;20461;-92
2021/05/03 18:06:56;;;;;;;7.23;4.43;;;13.20;99.90;;;-143.32;41.29;55511.66;4807618;29;20527;-90
2021/05/03 18:09:22;;;;;;;9.80;4.90;;;13.20;99.90;;;-143.32;41.44;55481.34;4822070;29;20481;-89
2021/05/03 18:11:49;;;;;;;6.57;4.50;;;13.10;99.90;;;-143.32;41.01;55501.56;4863687;29;20486;-90
2021/05/03 18:14:34;;;;;;;9.73;4.83;;;13.00;99.90;;;-143.32;41.30;55495.50;4863702;29;20462;-88
2021/05/03 18:17:54;;;;;;;7.73;4.90;;;13.00;99.90;;;-143.32;41.34;55499.53;4856723;29;20477;-91
2021/05/03 18:20:21;;;;;;;9.00;4.30;;;13.00;99.90;;;-143.32;41.98;55471.25;4857595;29;20873;-90
2021/05/03 18:22:53;;;;;;;7.50;5.07;;;12.90;99.90;;;-143.32;42.25;55501.56;4863716;29;20960;-92
2021/05/03 18:25:22;;;;;;;7.00;4.63;;;12.90;99.90;;;-143.32;42.20;55515.72;4863845;29;20553;-90
2021/05/03 18:27:52;;;;;;;7.90;4.87;;;12.90;99.90;;;-143.32;42.24;55507.63;4864073;29;20458;-89
2021/05/03 18:30:20;;;;;;;6.33;4.10;;;12.90;99.90;;;-143.32;42.78;55507.63;4862495;29;20502;-91
2021/05/03 18:32:52;;;;;;;5.73;4.63;;;12.80;99.90;;;-143.32;42.81;55505.59;4862944;29;20438;-91
2021/05/03 18:35:22;;;;;;;11.63;4.63;;;12.80;99.90;;;-143.32;43.05;55483.38;4863463;29;20442;-91
2021/05/03 18:37:53;;;;;;;8.90;4.70;;;12.60;99.90;;;-143.32;43.03;55517.72;4862979;29;20450;-91
2021/05/03 18:40:21;;;;;;;7.40;4.80;;;12.70;99.90;;;-143.32;43.33;55503.59;4863086;29;20463;-92
2021/05/03 18:43:01;;;;;;;9.13;5.03;;;12.70;99.90;;;-143.32;43.69;55463.16;4863213;29;20461;-90
2021/05/03 18:45:35;;;;;;;9.23;5.10;;;12.70;99.90;;;-143.32;43.67;55467.22;4862980;29;20443;-91
2021/05/03 18:48:03;;;;;;;10.00;4.93;;;12.60;99.90;;;-143.32;43.89;55507.63;4864109;29;20811;-93
2021/05/03 18:50:30;;;;;;;13.87;5.00;;;12.60;99.90;;;-143.32;43.95;55483.38;4863308;29;20453;-92
2021/05/03 18:52:57;;;;;;;9.43;4.97;;;12.60;99.90;;;-143.32;44.62;55511.66;4863965;29;20518;-92
2021/05/03 18:55:23;;;;;;;8.03;4.87;;;12.50;99.90;;;-143.32;44.65;55503.59;4863476;29;20466;-88
2021/05/03 18:57:50;;;;;;;9.03;5.80;;;12.70;99.90;;;-143.32;45.26;55515.72;4863346;29;20518;-90
2021/05/03 19:00:20;;;;;;;6.70;5.37;;;12.50;99.90;;;-143.32;44.87;55505.59;4863039;29;20461;-89
2021/05/03 19:02:49;;;;;;;10.37;5.50;;;12.40;99.90;;;-143.32;44.97;55521.78;4863612;29;20851;-92
2021/05/03 19:05:16;;;;;;;10.93;5.97;;;12.40;99.90;;;-143.32;45.60;55517.72;4863269;29;20450;-91
2021/05/03 19:07:43;;;;;;;8.03;5.03;;;12.40;99.90;;;-143.32;45.81;55507.63;4862565;29;20548;-89
2021/05/03 19:10:13;;;;;;;13.87;5.93;;;12.40;99.90;;;-143.32;45.48;55523.78;4862388;29;20977;-91
2021/05/03 19:12:41;;;;;;;13.87;6.13;;;12.40;99.90;;;-143.32;45.93;55499.53;4862631;29;20490;-90
2021/05/03 19:15:10;;;;;;;10.10;5.80;;;12.40;99.90;;;-143.32;45.82;55513.69;4862443;29;20454;-91
2021/05/03 19:17:38;;;;;;;10.30;6.10;;;12.30;99.90;;;-143.32;46.09;55499.53;4862861;29;20473;-91
2021/05/03 19:20:08;;;;;;;8.63;5.50;;;12.30;99.90;;;-143.32;46.06;55511.66;4862802;29;20450;-90
2021/05/03 19:22:35;;;;;;;16.40;6.43;;;12.20;99.90;;;-143.32;46.53;55521.78;4863880;29;20822;-90
2021/05/03 19:25:03;;;;;;;9.50;6.00;;;12.20;99.90;;;-143.32;46.79;55513.69;4863776;29;20497;-91
2021/05/03 19:27:32;;;;;;;12.63;6.67;;;12.20;99.90;;;-143.32;46.68;55497.53;4867323;29;20932;-90
2021/05/03 19:30:03;;;;;;;9.70;6.40;;;12.10;99.90;;;-143.32;47.52;55513.69;4868229;29;20450;-91